createdAt,value
2017-09-07T00:02:07.847Z,1.80
2017-09-07T00:04:35.301Z,1.70
2017-09-07T00:07:02.803Z,1.90
2017-09-07T00:09:30.273Z,2.10
2017-09-07T00:11:57.745Z,1.20
2017-09-07T00:14:25.271Z,1.40
2017-09-07T00:16:52.854Z,1.50
2017-09-07T00:19:20.308Z,1.60
2017-09-07T00:21:47.802Z,1.80
2017-09-07T00:24:15.274Z,2.30
2017-09-07T00:27:13.295Z,1.50
2017-09-07T00:29:41.522Z,1.37
2017-09-07T00:32:09.016Z,1.80
2017-09-07T00:34:37.299Z,2.30
2017-09-07T00:37:05.547Z,2.93
2017-09-07T00:39:33.010Z,1.90
2017-09-07T00:42:00.586Z,2.20
2017-09-07T00:44:28.049Z,2.07
2017-09-07T00:46:56.318Z,2.23
2017-09-07T00:49:24.608Z,2.33
2017-09-07T00:51:52.168Z,2.00
2017-09-07T00:54:19.650Z,1.70
2017-09-07T00:56:47.122Z,2.03
2017-09-07T00:59:14.576Z,2.00
2017-09-07T01:01:42.033Z,1.80
2017-09-07T01:04:09.539Z,1.90
2017-09-07T01:06:37.766Z,1.80
2017-09-07T01:09:05.365Z,2.17
2017-09-07T01:11:32.838Z,2.00
2017-09-07T01:14:01.083Z,1.93
2017-09-07T01:16:28.648Z,1.90
2017-09-07T01:18:56.108Z,1.70
2017-09-07T01:21:23.585Z,1.60
2017-09-07T01:23:51.897Z,1.87
2017-09-07T01:26:19.405Z,1.83
2017-09-07T01:28:46.963Z,1.97
2017-09-07T01:31:14.417Z,1.80
2017-09-07T01:33:41.880Z,2.40
2017-09-07T01:36:10.149Z,2.30
2017-09-07T01:38:37.625Z,1.50
2017-09-07T01:41:05.884Z,2.03
2017-09-07T01:43:33.345Z,2.60
2017-09-07T01:46:01.671Z,2.50
2017-09-07T01:48:41.253Z,1.67
2017-09-07T01:51:08.722Z,2.27
2017-09-07T01:53:36.962Z,3.00
2017-09-07T01:56:04.540Z,2.40
2017-09-07T01:58:32.013Z,1.90
2017-09-07T02:01:00.272Z,2.20
2017-09-07T02:03:27.733Z,2.30
2017-09-07T02:05:56.010Z,2.65
2017-09-07T02:08:24.245Z,2.40
2017-09-07T02:10:51.738Z,3.07
2017-09-07T02:13:19.987Z,1.97
2017-09-07T02:15:47.482Z,2.50
2017-09-07T02:18:15.744Z,2.67
2017-09-07T02:20:43.250Z,2.30
2017-09-07T02:23:10.757Z,3.25
2017-09-07T02:25:38.223Z,2.60
2017-09-07T02:28:06.465Z,2.40
2017-09-07T02:30:33.953Z,2.40
2017-09-07T02:33:02.230Z,2.28
2017-09-07T02:35:30.505Z,3.03
2017-09-07T02:37:57.981Z,2.77
2017-09-07T02:40:26.226Z,3.05
2017-09-07T02:42:53.795Z,3.00
2017-09-07T02:45:21.298Z,3.20
2017-09-07T02:47:48.774Z,2.58
2017-09-07T02:50:16.266Z,2.50
2017-09-07T02:52:44.537Z,3.07
2017-09-07T02:55:12.782Z,3.90
2017-09-07T02:57:40.248Z,2.83
2017-09-07T03:00:07.729Z,2.83
2017-09-07T03:02:36.002Z,3.40
2017-09-07T03:05:03.488Z,2.28
2017-09-07T03:07:30.961Z,3.03
2017-09-07T03:09:58.529Z,3.20
2017-09-07T03:12:26.034Z,3.50
2017-09-07T03:14:54.272Z,3.05
2017-09-07T03:17:21.819Z,3.83
2017-09-07T03:19:49.285Z,3.20
2017-09-07T03:22:16.762Z,2.92
2017-09-07T03:24:44.342Z,3.37
2017-09-07T03:27:12.592Z,2.30
2017-09-07T03:29:40.060Z,3.10
2017-09-07T03:32:07.571Z,2.62
2017-09-07T03:34:35.037Z,2.60
2017-09-07T03:37:02.509Z,3.03
2017-09-07T03:39:30.055Z,2.67
2017-09-07T03:41:57.616Z,3.03
2017-09-07T03:44:25.229Z,2.78
2017-09-07T03:46:53.457Z,2.95
2017-09-07T03:49:20.945Z,3.15
2017-09-07T03:51:48.534Z,3.45
2017-09-07T03:54:16.781Z,3.65
2017-09-07T03:56:44.246Z,2.97
2017-09-07T03:59:12.542Z,3.22
2017-09-07T04:01:40.786Z,2.78
2017-09-07T04:04:08.354Z,3.00
2017-09-07T04:06:36.594Z,3.20
2017-09-07T04:09:04.071Z,2.90
2017-09-07T04:11:31.541Z,3.95
2017-09-07T04:13:59.793Z,3.00
2017-09-07T04:16:28.102Z,3.80
2017-09-07T04:18:56.344Z,2.53
2017-09-07T04:21:23.837Z,3.62
2017-09-07T04:23:52.086Z,3.97
2017-09-07T04:26:19.657Z,2.92
2017-09-07T04:28:47.122Z,3.22
2017-09-07T04:31:15.371Z,2.87
2017-09-07T04:33:43.075Z,3.37
2017-09-07T04:36:11.690Z,3.15
2017-09-07T04:38:39.455Z,3.83
2017-09-07T04:41:07.022Z,3.25
2017-09-07T04:43:34.492Z,3.05
2017-09-07T04:46:02.181Z,3.00
2017-09-07T04:48:30.414Z,3.00
2017-09-07T04:50:57.990Z,2.83
2017-09-07T04:53:25.569Z,2.80
2017-09-07T04:55:53.080Z,3.87
2017-09-07T04:58:20.542Z,3.00
2017-09-07T05:00:48.132Z,3.72
2017-09-07T05:03:15.707Z,2.97
2017-09-07T05:05:43.966Z,3.58
2017-09-07T05:08:11.443Z,3.75
2017-09-07T05:10:39.693Z,3.97
2017-09-07T05:13:07.356Z,4.65
2017-09-07T05:15:34.908Z,4.50
2017-09-07T05:18:02.394Z,3.25
2017-09-07T05:20:30.715Z,3.97
2017-09-07T05:22:58.188Z,4.03
2017-09-07T05:25:25.666Z,3.67
2017-09-07T05:27:53.136Z,3.92
2017-09-07T05:30:21.385Z,3.93
2017-09-07T05:32:48.854Z,4.10
2017-09-07T05:35:16.679Z,4.00
2017-09-07T05:37:44.139Z,4.30
2017-09-07T05:40:11.601Z,3.90
2017-09-07T05:42:39.078Z,4.20
2017-09-07T05:45:06.589Z,3.75
2017-09-07T05:47:34.057Z,4.00
2017-09-07T05:50:01.629Z,5.00
2017-09-07T05:52:29.139Z,4.20
2017-09-07T05:54:56.699Z,3.53
2017-09-07T05:57:24.930Z,4.23
2017-09-07T05:59:52.445Z,3.80
2017-09-07T06:02:20.688Z,4.40
2017-09-07T06:04:48.166Z,5.03
2017-09-07T06:07:16.435Z,5.30
2017-09-07T06:09:44.700Z,4.87
2017-09-07T06:12:12.171Z,4.20
2017-09-07T06:14:40.490Z,4.80
2017-09-07T06:17:07.981Z,4.25
2017-09-07T06:19:35.446Z,4.40
2017-09-07T06:22:03.721Z,4.67
2017-09-07T06:24:31.194Z,3.97
2017-09-07T06:26:59.447Z,5.77
2017-09-07T06:29:27.045Z,5.23
2017-09-07T06:31:55.280Z,3.80
2017-09-07T06:34:22.745Z,4.70
2017-09-07T06:36:50.259Z,4.40
2017-09-07T06:39:17.770Z,4.13
2017-09-07T06:41:46.032Z,4.77
2017-09-07T06:44:13.579Z,4.57
2017-09-07T06:46:41.072Z,5.47
2017-09-07T06:49:09.341Z,4.40
2017-09-07T06:51:37.615Z,4.03
2017-09-07T06:54:05.843Z,4.73
2017-09-07T06:56:33.320Z,4.60
2017-09-07T06:59:00.793Z,4.07
2017-09-07T07:01:28.266Z,3.90
2017-09-07T07:03:56.501Z,4.10
2017-09-07T07:06:23.960Z,3.90
2017-09-07T07:08:51.494Z,3.80
2017-09-07T07:11:18.954Z,4.27
2017-09-07T07:13:46.428Z,4.40
2017-09-07T07:16:13.917Z,4.30
2017-09-07T07:18:42.171Z,4.90
2017-09-07T07:21:09.660Z,3.13
2017-09-07T07:23:37.896Z,3.97
2017-09-07T07:26:05.482Z,3.97
2017-09-07T07:28:32.965Z,3.20
2017-09-07T07:31:00.434Z,3.10
2017-09-07T07:33:27.904Z,4.20
2017-09-07T07:35:55.373Z,3.80
2017-09-07T07:38:22.910Z,2.60
2017-09-07T07:40:50.366Z,3.20
2017-09-07T07:43:17.981Z,3.23
2017-09-07T07:45:45.487Z,2.70
2017-09-07T07:48:12.984Z,3.53
2017-09-07T07:50:40.451Z,2.77
2017-09-07T07:53:07.916Z,3.50
2017-09-07T07:55:35.383Z,2.83
2017-09-07T07:58:03.626Z,3.60
2017-09-07T08:00:31.091Z,2.90
2017-09-07T08:02:58.652Z,3.40
2017-09-07T08:05:26.125Z,3.17
2017-09-07T08:07:54.386Z,2.80
2017-09-07T08:10:21.861Z,2.73
2017-09-07T08:12:50.097Z,2.77
2017-09-07T08:15:17.553Z,2.67
2017-09-07T08:17:45.025Z,2.40
2017-09-07T08:20:12.506Z,3.03
2017-09-07T08:22:40.735Z,2.30
2017-09-07T08:25:08.226Z,2.83
2017-09-07T08:27:36.461Z,3.00
2017-09-07T08:30:03.937Z,3.20
2017-09-07T08:32:31.547Z,2.20
2017-09-07T08:34:59.038Z,2.50
2017-09-07T08:37:26.538Z,2.03
2017-09-07T08:39:54.797Z,2.90
2017-09-07T08:42:22.417Z,2.90
2017-09-07T08:44:49.936Z,3.37
2017-09-07T08:47:18.169Z,2.10
2017-09-07T08:49:45.656Z,2.23
2017-09-07T08:52:13.127Z,2.30
2017-09-07T08:54:41.542Z,2.50
2017-09-07T08:57:09.008Z,2.30
2017-09-07T08:59:36.512Z,2.70
2017-09-07T09:02:04.762Z,3.63
2017-09-07T09:04:32.224Z,2.60
2017-09-07T09:06:59.785Z,2.03
2017-09-07T09:09:27.286Z,3.90
2017-09-07T09:11:54.863Z,2.43
2017-09-07T09:14:22.360Z,2.93
2017-09-07T09:16:49.883Z,2.30
2017-09-07T09:19:17.457Z,3.10
2017-09-07T09:21:44.939Z,3.70
2017-09-07T09:24:12.420Z,2.40
2017-09-07T09:26:39.944Z,2.73
2017-09-07T09:29:07.436Z,2.43
2017-09-07T09:31:34.912Z,2.20
2017-09-07T09:34:02.413Z,1.97
2017-09-07T09:36:30.656Z,2.30
2017-09-07T09:38:58.158Z,2.30
2017-09-07T09:41:25.635Z,2.63
2017-09-07T09:43:53.857Z,2.00
2017-09-07T09:46:21.341Z,2.00
2017-09-07T09:48:48.923Z,1.90
2017-09-07T09:51:17.190Z,2.10
2017-09-07T09:53:45.430Z,2.30
2017-09-07T09:56:12.909Z,2.00
2017-09-07T09:58:40.373Z,2.37
2017-09-07T10:01:08.639Z,1.90
2017-09-07T10:03:36.158Z,2.20
2017-09-07T10:06:03.654Z,2.30
2017-09-07T10:08:31.138Z,1.63
2017-09-07T10:10:58.672Z,2.00
2017-09-07T10:13:26.140Z,1.57
2017-09-07T10:15:54.375Z,2.30
2017-09-07T10:18:21.859Z,1.97
2017-09-07T10:20:49.358Z,2.23
2017-09-07T10:23:16.840Z,2.53
2017-09-07T10:25:44.342Z,2.00
2017-09-07T10:28:12.583Z,1.90
2017-09-07T10:30:40.054Z,2.20
2017-09-07T10:33:07.530Z,2.40
2017-09-07T10:35:35.762Z,2.70
2017-09-07T10:38:03.242Z,1.80
2017-09-07T10:40:30.802Z,2.30
2017-09-07T10:42:58.356Z,2.30
2017-09-07T10:45:25.837Z,2.30
2017-09-07T10:47:54.089Z,2.20
2017-09-07T10:50:21.717Z,2.70
2017-09-07T10:52:49.218Z,1.77
2017-09-07T10:55:16.869Z,2.37
2017-09-07T10:57:44.357Z,2.40
2017-09-07T11:00:12.594Z,2.17
2017-09-07T11:02:40.061Z,2.90
2017-09-07T11:05:07.630Z,2.17
2017-09-07T11:07:35.177Z,2.00
2017-09-07T11:10:02.646Z,2.67
2017-09-07T11:12:30.926Z,2.10
2017-09-07T11:14:59.197Z,2.20
2017-09-07T11:17:26.668Z,2.03
2017-09-07T11:19:54.905Z,2.13
2017-09-07T11:22:22.365Z,2.00
2017-09-07T11:24:49.845Z,2.00
2017-09-07T11:27:18.246Z,2.30
2017-09-07T11:29:46.503Z,2.20
2017-09-07T11:32:13.969Z,2.30
2017-09-07T11:34:42.209Z,2.00
2017-09-07T11:37:09.676Z,2.10
2017-09-07T11:39:37.154Z,2.33
2017-09-07T11:42:05.418Z,2.00
2017-09-07T11:44:32.878Z,1.57
2017-09-07T11:47:00.430Z,2.10
2017-09-07T11:49:27.894Z,2.23
2017-09-07T11:51:56.120Z,1.90
2017-09-07T11:54:23.597Z,1.67
2017-09-07T11:56:51.129Z,2.07
2017-09-07T11:59:18.589Z,1.90
2017-09-07T12:01:46.090Z,1.90
2017-09-07T12:04:13.557Z,2.10
2017-09-07T12:06:41.857Z,1.77
2017-09-07T12:09:09.331Z,2.40
2017-09-07T12:11:36.834Z,1.70
2017-09-07T12:14:04.393Z,2.43
2017-09-07T12:16:31.850Z,2.43
2017-09-07T12:18:59.322Z,1.70
2017-09-07T12:21:26.805Z,1.57
2017-09-07T12:23:54.324Z,1.73
2017-09-07T12:26:21.793Z,1.70
2017-09-07T12:28:50.066Z,1.60
2017-09-07T12:31:18.317Z,2.43
2017-09-07T12:33:45.885Z,2.27
2017-09-07T12:36:13.349Z,2.20
2017-09-07T12:38:40.830Z,2.10
2017-09-07T12:41:09.061Z,2.30
2017-09-07T12:43:36.529Z,1.83
2017-09-07T12:46:04.098Z,1.67
2017-09-07T12:48:31.565Z,2.23
2017-09-07T12:50:59.837Z,2.10
2017-09-07T12:53:28.117Z,2.63
2017-09-07T12:55:56.369Z,2.00
2017-09-07T12:58:23.939Z,1.90
2017-09-07T13:00:51.397Z,1.70
2017-09-07T13:03:19.664Z,2.10
2017-09-07T13:05:47.222Z,2.17
2017-09-07T13:08:14.691Z,2.40
2017-09-07T13:10:42.932Z,2.87
2017-09-07T13:13:10.393Z,1.80
2017-09-07T13:15:37.875Z,2.27
2017-09-07T13:18:06.114Z,2.40
2017-09-07T13:20:33.585Z,2.20
2017-09-07T13:23:01.052Z,2.53
2017-09-07T13:25:28.625Z,2.20
2017-09-07T13:27:56.875Z,2.40
2017-09-07T13:30:24.346Z,3.20
2017-09-07T13:32:51.904Z,2.37
2017-09-07T13:35:19.378Z,2.30
2017-09-07T13:37:47.619Z,3.20
2017-09-07T13:40:15.092Z,3.00
2017-09-07T13:42:42.661Z,3.20
2017-09-07T13:45:10.946Z,3.40
2017-09-07T13:47:39.181Z,2.73
2017-09-07T13:50:06.650Z,2.60
2017-09-07T13:52:34.222Z,2.20
2017-09-07T13:55:01.687Z,2.50
2017-09-07T13:57:29.971Z,2.27
2017-09-07T13:59:58.206Z,2.17
2017-09-07T14:02:25.681Z,2.00
2017-09-07T14:04:53.250Z,2.27
2017-09-07T14:07:21.531Z,1.80
2017-09-07T14:09:49.850Z,2.07
2017-09-07T14:12:17.350Z,1.60
2017-09-07T14:14:44.911Z,1.90
2017-09-07T14:17:12.465Z,2.20
2017-09-07T14:19:39.924Z,2.00
2017-09-07T14:22:07.381Z,1.70
2017-09-07T14:24:34.944Z,2.03
2017-09-07T14:27:02.414Z,1.63
2017-09-07T14:29:30.654Z,2.03
2017-09-07T14:31:58.117Z,2.23
2017-09-07T14:34:25.640Z,2.13
2017-09-07T14:36:53.111Z,2.40
2017-09-07T14:39:20.606Z,1.73
2017-09-07T14:41:48.845Z,2.13
2017-09-07T14:44:16.329Z,2.20
2017-09-07T14:46:43.901Z,1.83
2017-09-07T14:49:11.368Z,2.30
2017-09-07T14:51:39.589Z,1.90
2017-09-07T14:54:07.046Z,1.90
2017-09-07T14:56:34.516Z,1.60
2017-09-07T14:59:01.970Z,2.00
2017-09-07T15:01:29.463Z,2.40
2017-09-07T15:03:57.682Z,2.00
2017-09-07T15:06:25.161Z,1.80
2017-09-07T15:08:52.626Z,2.10
2017-09-07T15:11:20.089Z,1.90
2017-09-07T15:13:47.550Z,1.60
2017-09-07T15:16:15.010Z,2.60
2017-09-07T15:18:43.286Z,2.40
2017-09-07T15:21:10.762Z,2.20
2017-09-07T15:23:38.307Z,1.73
2017-09-07T15:26:05.793Z,1.90
2017-09-07T15:28:33.253Z,1.87
2017-09-07T15:31:00.722Z,2.40
2017-09-07T15:33:28.177Z,2.37
2017-09-07T15:35:55.640Z,2.17
2017-09-07T15:38:23.103Z,1.80
2017-09-07T15:40:50.590Z,2.10
2017-09-07T15:43:18.055Z,1.90
2017-09-07T15:45:45.520Z,2.07
2017-09-07T15:48:13.788Z,2.27
2017-09-07T15:50:41.234Z,1.67
2017-09-07T15:53:08.710Z,1.90
2017-09-07T15:55:36.951Z,1.80
2017-09-07T15:58:04.431Z,2.27
2017-09-07T16:00:31.897Z,2.53
2017-09-07T16:02:59.438Z,1.83
2017-09-07T16:05:26.897Z,2.10
2017-09-07T16:07:54.367Z,1.70
2017-09-07T16:10:21.820Z,1.80
2017-09-07T16:12:50.085Z,1.97
2017-09-07T16:15:17.549Z,1.80
2017-09-07T16:17:45.813Z,2.63
2017-09-07T16:20:13.369Z,2.40
2017-09-07T16:22:40.994Z,2.50
2017-09-07T16:25:08.454Z,1.63
2017-09-07T16:27:36.062Z,1.40
2017-09-07T16:30:03.609Z,1.80
2017-09-07T16:32:31.854Z,1.90
2017-09-07T16:34:59.336Z,1.83
2017-09-07T16:37:26.795Z,1.80
2017-09-07T16:39:54.271Z,1.90
2017-09-07T16:42:22.496Z,2.17
2017-09-07T16:44:49.955Z,1.60
2017-09-07T16:47:17.441Z,2.60
2017-09-07T16:49:44.909Z,1.37
2017-09-07T16:52:12.384Z,2.43
2017-09-07T16:54:40.602Z,1.93
2017-09-07T16:57:08.085Z,1.80
2017-09-07T16:59:35.650Z,1.50
2017-09-07T17:02:03.206Z,1.67
2017-09-07T17:04:30.665Z,1.67
2017-09-07T17:06:58.130Z,1.77
2017-09-07T17:09:25.595Z,2.37
2017-09-07T17:11:53.853Z,1.90
2017-09-07T17:14:21.414Z,2.30
2017-09-07T17:16:48.901Z,2.10
2017-09-07T17:19:16.482Z,2.40
2017-09-07T17:21:43.942Z,1.90
2017-09-07T17:24:11.416Z,2.67
2017-09-07T17:26:38.897Z,2.63
2017-09-07T17:29:06.352Z,2.23
2017-09-07T17:31:33.809Z,2.30
2017-09-07T17:34:01.269Z,3.08
2017-09-07T17:36:28.833Z,2.27
2017-09-07T17:38:56.293Z,2.30
2017-09-07T17:41:24.526Z,2.60
2017-09-07T17:43:52.005Z,2.50
2017-09-07T17:46:19.491Z,2.47
2017-09-07T17:48:47.745Z,2.63
2017-09-07T17:51:15.311Z,2.30
2017-09-07T17:53:42.888Z,2.77
2017-09-07T17:56:11.135Z,2.87
2017-09-07T17:58:38.685Z,2.40
2017-09-07T18:01:06.318Z,2.43
2017-09-07T18:03:33.814Z,2.57
2017-09-07T18:06:02.196Z,2.73
2017-09-07T18:08:29.763Z,2.87
2017-09-07T18:10:57.996Z,2.47
2017-09-07T18:13:25.491Z,2.80
2017-09-07T18:15:53.753Z,2.50
2017-09-07T18:18:21.313Z,3.80
2017-09-07T18:20:48.793Z,2.93
2017-09-07T18:23:17.084Z,2.90
2017-09-07T18:25:44.619Z,2.57
2017-09-07T18:28:12.855Z,2.63
2017-09-07T18:30:40.322Z,2.70
2017-09-07T18:33:07.782Z,3.30
2017-09-07T18:35:35.249Z,3.40
2017-09-07T18:38:02.816Z,3.17
2017-09-07T18:40:30.298Z,2.80
2017-09-07T18:42:58.702Z,3.20
2017-09-07T18:45:26.196Z,3.37
2017-09-07T18:47:53.757Z,3.43
2017-09-07T18:50:21.322Z,3.40
2017-09-07T18:52:49.141Z,3.63
2017-09-07T18:55:16.606Z,3.37
2017-09-07T18:57:44.081Z,3.23
2017-09-07T19:00:11.576Z,3.67
2017-09-07T19:02:39.800Z,2.87
2017-09-07T19:05:07.275Z,3.67
2017-09-07T19:07:34.803Z,3.67
2017-09-07T19:10:02.275Z,3.47
2017-09-07T19:12:29.750Z,3.67
2017-09-07T19:14:57.209Z,3.50
2017-09-07T19:17:24.777Z,3.50
2017-09-07T19:19:52.334Z,4.10
2017-09-07T19:22:19.810Z,3.43
2017-09-07T19:24:48.065Z,3.50
2017-09-07T19:27:15.620Z,3.57
2017-09-07T19:29:43.087Z,3.53
2017-09-07T19:32:10.656Z,3.40
2017-09-07T19:34:38.918Z,3.83
2017-09-07T19:37:07.153Z,3.43
2017-09-07T19:39:34.635Z,3.57
2017-09-07T19:42:03.046Z,4.20
2017-09-07T19:44:30.853Z,3.20
2017-09-07T19:46:58.466Z,3.67
2017-09-07T19:49:26.779Z,4.03
2017-09-07T19:51:54.266Z,3.70
2017-09-07T19:54:21.731Z,4.27
2017-09-07T19:56:49.185Z,4.20
2017-09-07T19:59:16.753Z,3.60
2017-09-07T20:01:44.231Z,5.33
2017-09-07T20:04:12.495Z,4.50
2017-09-07T20:06:39.972Z,3.63
2017-09-07T20:09:07.442Z,4.40
2017-09-07T20:11:34.902Z,5.00
2017-09-07T20:14:02.383Z,4.37
2017-09-07T20:16:29.864Z,3.93
2017-09-07T20:18:58.928Z,4.63
2017-09-07T20:21:26.502Z,4.03
2017-09-07T20:23:53.966Z,3.83
2017-09-07T20:26:21.446Z,3.70
2017-09-07T20:28:48.914Z,4.53
2017-09-07T20:31:17.161Z,4.83
2017-09-07T20:33:44.737Z,4.83
2017-09-07T20:36:12.991Z,4.13
2017-09-07T20:38:40.464Z,4.40
2017-09-07T20:41:07.939Z,4.40
2017-09-07T20:43:36.251Z,4.70
2017-09-07T20:46:03.712Z,4.40
2017-09-07T20:48:31.176Z,3.90
2017-09-07T20:50:58.700Z,3.50
2017-09-07T20:53:26.940Z,4.43
2017-09-07T20:55:54.406Z,4.07
2017-09-07T20:58:22.637Z,4.03
2017-09-07T21:00:50.112Z,5.00
2017-09-07T21:03:17.584Z,4.30
2017-09-07T21:05:45.045Z,4.40
2017-09-07T21:08:12.509Z,4.53
2017-09-07T21:10:40.790Z,4.73
2017-09-07T21:13:09.012Z,5.50
2017-09-07T21:15:36.562Z,4.50
2017-09-07T21:18:04.021Z,4.70
2017-09-07T21:20:31.494Z,4.57
2017-09-07T21:22:58.977Z,3.80
2017-09-07T21:25:26.554Z,4.20
2017-09-07T21:27:54.811Z,4.10
2017-09-07T21:30:22.369Z,4.13
2017-09-07T21:32:50.645Z,3.50
2017-09-07T21:35:18.114Z,4.70
2017-09-07T21:37:46.342Z,4.23
2017-09-07T21:40:13.828Z,5.30
2017-09-07T21:42:41.400Z,4.90
2017-09-07T21:45:08.870Z,3.77
2017-09-07T21:47:37.112Z,4.60
2017-09-07T21:50:04.583Z,3.80
2017-09-07T21:52:32.143Z,4.50
2017-09-07T21:54:59.709Z,4.40
2017-09-07T21:57:27.937Z,4.53
2017-09-07T21:59:55.422Z,5.30
2017-09-07T22:02:23.047Z,5.03
2017-09-07T22:04:50.502Z,4.70
2017-09-07T22:07:18.015Z,4.90
2017-09-07T22:09:46.282Z,4.87
2017-09-07T22:12:13.762Z,4.90
2017-09-07T22:14:42.030Z,5.00
2017-09-07T22:17:09.498Z,4.30
2017-09-07T22:19:36.953Z,4.00
2017-09-07T22:22:04.477Z,4.40
2017-09-07T22:24:31.958Z,4.60
2017-09-07T22:27:00.197Z,4.60
2017-09-07T22:29:27.790Z,4.80
2017-09-07T22:31:56.030Z,4.20
2017-09-07T22:34:23.499Z,4.10
2017-09-07T22:36:51.080Z,4.20
2017-09-07T22:39:19.321Z,5.70
2017-09-07T22:41:46.900Z,4.70
2017-09-07T22:44:14.457Z,4.27
2017-09-07T22:46:41.921Z,4.40
2017-09-07T22:49:09.478Z,5.10
2017-09-07T22:51:36.949Z,4.30
2017-09-07T22:54:05.197Z,5.07
2017-09-07T22:56:32.662Z,4.77
2017-09-07T22:59:01.146Z,4.67
2017-09-07T23:01:28.605Z,4.57
2017-09-07T23:03:56.844Z,4.07
2017-09-07T23:06:24.318Z,3.90
2017-09-07T23:08:51.891Z,4.03
2017-09-07T23:11:19.446Z,3.73
2017-09-07T23:13:46.920Z,4.97
2017-09-07T23:16:15.177Z,5.10
2017-09-07T23:18:42.737Z,4.30
2017-09-07T23:21:10.297Z,4.70
2017-09-07T23:23:37.765Z,5.00
2017-09-07T23:26:06.001Z,5.00
2017-09-07T23:28:33.481Z,4.40
2017-09-07T23:31:01.038Z,5.17
2017-09-07T23:33:28.592Z,5.00
2017-09-07T23:35:56.058Z,5.10
2017-09-07T23:38:23.526Z,4.63
2017-09-07T23:40:51.754Z,5.40
2017-09-07T23:43:19.235Z,5.70
2017-09-07T23:45:46.810Z,5.03
2017-09-07T23:48:14.356Z,5.03
2017-09-07T23:50:41.831Z,6.57
2017-09-07T23:53:10.089Z,4.87
2017-09-07T23:55:37.556Z,5.80
2017-09-07T23:58:05.025Z,4.63
